Waterville, Vermont
Current Conditions -  °F | °C
As of 12:54 PM on Sunday 25 Jan 2015 (Local Time) from KMVL Reporting Station
Unknown Precip Unknown Precip  
Wind Chill:   Ceiling: 2600
Heat Index: 12°   Visibility: 10mi
Dew Point:   Wind: 8mph
Humidity: 59%   Direction: 320°NW
Pressure: 29.75"   Gusts: 20mph
Location:  44.69°N, 72.77°W
Report Text: KMVL 251754Z AUTO 32007G17KT 10SM UP BKN026 OVC032 M11/M18 A2975 RMK AO2 UPB31 SLP087 P0000 60000 T11111178 11067 21122 51026 TSNO
Loading
Personal Weather Stations






























Interactive Weather Map New forecast layout! Learn more

10-Day Weather Forecast

Advertisements
Track Severe Weather on mobile